Wetterdaten: Woche 19.07.04 - 25.07.04 (KW30)
Datum Zeit Temperatur Luftfeuchte Luftdruck Regenmenge Wind Richtung Taupunkt Windchill
19.07.2004 00:00 18.2 C 83 % 1020.7 hPa 0.0 l/m 2.9 km/h (1 Bft) SO 15.3 C 18.2 C
19.07.2004 01:00 17.4 C 94 % 1020.8 hPa 0.9 l/m 1.6 km/h (1 Bft) O-SO 16.4 C 17.4 C
19.07.2004 02:00 17.1 C 99 % 1020.6 hPa 0.0 l/m 2.4 km/h (1 Bft) O-SO 16.9 C 17.1 C
19.07.2004 03:00 16.2 C 100 % 1020.1 hPa 0.0 l/m 2.7 km/h (1 Bft) O-SO 16.2 C 16.2 C
19.07.2004 04:00 15.7 C 100 % 1020.4 hPa 0.0 l/m 0.3 km/h (0 Bft) O-SO 15.7 C 15.7 C
19.07.2004 05:00 15.8 C 100 % 1020.6 hPa 0.0 l/m 0.1 km/h (0 Bft) NW 15.8 C 15.8 C
19.07.2004 06:00 16.5 C 100 % 1020.4 hPa 0.0 l/m 0.0 km/h (0 Bft) N 16.5 C 16.5 C
19.07.2004 07:00 16.5 C 100 % 1020.9 hPa 0.0 l/m 0.0 km/h (0 Bft) N 16.5 C 16.5 C
19.07.2004 08:00 17.2 C 100 % 1020.8 hPa 0.0 l/m 0.0 km/h (0 Bft) N 17.2 C 17.2 C
19.07.2004 09:00 18.3 C 95 % 1020.7 hPa 0.0 l/m 0.1 km/h (0 Bft) N 17.5 C 18.3 C
19.07.2004 10:00 19.6 C 87 % 1020.5 hPa 0.0 l/m 0.1 km/h (0 Bft) N 17.4 C 19.6 C
19.07.2004 11:00 20.8 C 79 % 1020.4 hPa 0.0 l/m 0.6 km/h (0 Bft) O-SO 17.0 C 20.8 C
19.07.2004 12:00 22.8 C 66 % 1019.1 hPa 0.0 l/m 1.5 km/h (1 Bft) O 16.1 C 22.8 C
19.07.2004 13:00 24.8 C 60 % 1018.6 hPa 0.0 l/m 1.5 km/h (1 Bft) O-SO 16.5 C 24.8 C
19.07.2004 14:00 26.8 C 51 % 1017.5 hPa 0.0 l/m 2.6 km/h (1 Bft) O-SO 15.7 C 26.8 C
19.07.2004 15:00 28.3 C 45 % 1016.4 hPa 0.0 l/m 4.5 km/h (1 Bft) O 15.2 C 28.3 C
19.07.2004 16:00 28.9 C 41 % 1016.0 hPa 0.0 l/m 7.6 km/h (2 Bft) O-SO 14.4 C 28.9 C
19.07.2004 17:00 28.8 C 41 % 1015.2 hPa 0.0 l/m 4.4 km/h (1 Bft) O-SO 14.3 C 28.8 C
19.07.2004 18:00 28.5 C 43 % 1015.1 hPa 0.0 l/m 3.1 km/h (1 Bft) O-SO 14.6 C 28.5 C
19.07.2004 19:00 27.5 C 46 % 1014.4 hPa 0.0 l/m 0.4 km/h (0 Bft) O-SO 14.7 C 27.5 C
19.07.2004 20:00 25.2 C 53 % 1014.6 hPa 0.0 l/m 8.3 km/h (2 Bft) O-SO 14.9 C 25.2 C
19.07.2004 21:00 22.4 C 63 % 1015.0 hPa 0.0 l/m 4.2 km/h (1 Bft) O-SO 15.1 C 22.4 C
19.07.2004 22:00 20.7 C 73 % 1015.4 hPa 0.0 l/m 0.0 km/h (0 Bft) N 15.6 C 20.7 C
19.07.2004 23:00 19.3 C 82 % 1015.4 hPa 0.0 l/m 0.0 km/h (0 Bft) N 16.2 C 19.3 C
20.07.2004 00:00 18.1 C 85 % 1015.5 hPa 0.0 l/m 0.0 km/h (0 Bft) N 15.6 C 18.1 C
20.07.2004 01:00 17.3 C 89 % 1014.7 hPa 0.0 l/m 0.0 km/h (0 Bft) N 15.4 C 17.3 C
20.07.2004 02:00 16.8 C 91 % 1014.7 hPa 0.0 l/m 0.0 km/h (0 Bft) N 15.4 C 16.8 C
20.07.2004 03:00 17.2 C 90 % 1014.6 hPa 0.0 l/m 0.0 km/h (0 Bft) N 15.6 C 17.2 C
20.07.2004 04:00 17.1 C 91 % 1014.6 hPa 0.0 l/m 0.0 km/h (0 Bft) N 15.6 C 17.1 C
20.07.2004 05:00 16.1 C 95 % 1014.7 hPa 0.0 l/m 0.0 km/h (0 Bft) N 15.4 C 16.1 C
20.07.2004 06:00 16.6 C 96 % 1014.0 hPa 0.0 l/m 0.0 km/h (0 Bft) N 15.9 C 16.6 C
20.07.2004 07:00 18.2 C 85 % 1014.5 hPa 0.0 l/m 0.8 km/h (0 Bft) O-SO 15.7 C 18.2 C
20.07.2004 08:00 19.7 C 78 % 1015.2 hPa 0.0 l/m 0.6 km/h (0 Bft) O-NO 15.8 C 19.7 C
20.07.2004 09:00 22.2 C 63 % 1015.0 hPa 0.0 l/m 8.8 km/h (2 Bft) W-NW 14.7 C 22.2 C
20.07.2004 10:00 23.2 C 58 % 1014.9 hPa 0.0 l/m 11.3 km/h (2 Bft) W-NW 14.4 C 23.2 C
20.07.2004 11:00 24.5 C 55 % 1014.7 hPa 0.0 l/m 4.8 km/h (1 Bft) W-NW 14.8 C 24.5 C
20.07.2004 12:00 25.4 C 53 % 1014.6 hPa 0.0 l/m 3.2 km/h (1 Bft) NW 15.0 C 25.4 C
20.07.2004 13:00 24.9 C 49 % 1014.8 hPa 0.0 l/m 15.8 km/h (3 Bft) W-NW 13.5 C 24.9 C
20.07.2004 14:00 22.8 C 63 % 1016.0 hPa 0.0 l/m 5.4 km/h (1 Bft) NW 15.2 C 22.8 C
20.07.2004 15:00 24.8 C 59 % 1015.7 hPa 0.0 l/m 4.6 km/h (1 Bft) O-SO 16.2 C 24.8 C
20.07.2004 16:00 26.8 C 51 % 1015.4 hPa 0.0 l/m 4.4 km/h (1 Bft) O-NO 15.8 C 26.8 C
20.07.2004 17:00 27.1 C 46 % 1014.4 hPa 0.0 l/m 4.3 km/h (1 Bft) W-NW 14.5 C 27.1 C
20.07.2004 18:00 24.8 C 58 % 1014.7 hPa 0.0 l/m 1.4 km/h (1 Bft) W-NW 16.0 C 24.8 C
20.07.2004 19:00 24.9 C 66 % 1014.5 hPa 0.0 l/m 0.1 km/h (0 Bft) W 18.1 C 24.9 C
20.07.2004 20:00 23.9 C 69 % 1014.5 hPa 0.0 l/m 0.0 km/h (0 Bft) N 17.7 C 23.9 C
20.07.2004 21:00 21.2 C 81 % 1015.2 hPa 0.0 l/m 1.0 km/h (0 Bft) O-NO 17.9 C 21.2 C
20.07.2004 22:00 19.5 C 88 % 1016.4 hPa 0.0 l/m 3.5 km/h (1 Bft) O-SO 17.6 C 19.5 C
20.07.2004 23:00 18.5 C 94 % 1016.5 hPa 0.0 l/m 2.3 km/h (1 Bft) O-SO 17.6 C 18.5 C
21.07.2004 00:00 18.2 C 95 % 1016.5 hPa 0.0 l/m 0.3 km/h (0 Bft) O-SO 17.5 C 18.2 C
21.07.2004 01:00 18.2 C 97 % 1016.9 hPa 0.3 l/m 0.5 km/h (0 Bft) O-SO 17.6 C 18.2 C
21.07.2004 02:00 18.3 C 99 % 1017.6 hPa 14.8 l/m 3.6 km/h (1 Bft) O-SO 18.1 C 18.3 C
21.07.2004 03:00 17.6 C 100 % 1016.8 hPa 0.0 l/m 1.0 km/h (0 Bft) O-SO 17.6 C 17.6 C
21.07.2004 04:00 17.2 C 100 % 1017.7 hPa 0.0 l/m 0.7 km/h (0 Bft) O-SO 17.2 C 17.2 C
21.07.2004 05:00 17.1 C 100 % 1017.7 hPa 0.0 l/m 0.0 km/h (0 Bft) N 17.1 C 17.1 C
21.07.2004 06:00 17.2 C 100 % 1017.7 hPa 0.0 l/m 0.6 km/h (0 Bft) O 17.2 C 17.2 C
21.07.2004 07:00 18.1 C 100 % 1017.7 hPa 0.0 l/m 0.0 km/h (0 Bft) N 18.1 C 18.1 C
21.07.2004 08:00 18.7 C 100 % 1018.6 hPa 0.0 l/m 0.4 km/h (0 Bft) O-SO 18.7 C 18.7 C
21.07.2004 09:00 19.7 C 100 % 1018.4 hPa 0.0 l/m 4.0 km/h (1 Bft) O-SO 19.7 C 19.7 C
21.07.2004 10:00 21.2 C 87 % 1018.1 hPa 0.0 l/m 1.9 km/h (1 Bft) N 18.9 C 21.2 C
21.07.2004 11:00 22.9 C 75 % 1017.9 hPa 0.0 l/m 1.8 km/h (1 Bft) W 18.3 C 22.9 C
21.07.2004 12:00 24.9 C 63 % 1017.0 hPa 0.0 l/m 3.2 km/h (1 Bft) O-SO 17.4 C 24.9 C
21.07.2004 13:00 27.0 C 53 % 1016.5 hPa 0.0 l/m 3.6 km/h (1 Bft) O-SO 16.5 C 27.0 C
21.07.2004 14:00 28.1 C 48 % 1016.3 hPa 0.0 l/m 2.1 km/h (1 Bft) W 15.9 C 28.1 C
21.07.2004 15:00 27.5 C 51 % 1016.1 hPa 0.0 l/m 5.3 km/h (1 Bft) W-NW 16.3 C 27.5 C
21.07.2004 16:00 29.2 C 45 % 1015.2 hPa 0.0 l/m 8.1 km/h (2 Bft) W-NW 15.9 C 29.2 C
21.07.2004 17:00 28.4 C 46 % 1015.3 hPa 0.0 l/m 3.0 km/h (1 Bft) W-NW 15.6 C 28.4 C
21.07.2004 18:00 29.1 C 47 % 1015.2 hPa 0.0 l/m 2.4 km/h (1 Bft) W-NW 16.6 C 29.1 C
21.07.2004 19:00 27.0 C 53 % 1015.4 hPa 0.0 l/m 0.1 km/h (0 Bft) N-NO 16.5 C 27.0 C
21.07.2004 20:00 25.3 C 65 % 1015.6 hPa 0.0 l/m 6.7 km/h (2 Bft) O-SO 18.1 C 25.3 C
21.07.2004 21:00 23.3 C 75 % 1016.7 hPa 0.0 l/m 2.2 km/h (1 Bft) O-SO 18.6 C 23.3 C
21.07.2004 22:00 22.2 C 78 % 1017.1 hPa 0.0 l/m 4.1 km/h (1 Bft) O-SO 18.2 C 22.2 C
21.07.2004 23:00 21.2 C 85 % 1017.2 hPa 0.0 l/m 1.8 km/h (1 Bft) O-SO 18.6 C 21.2 C
22.07.2004 00:00 21.0 C 88 % 1017.4 hPa 0.3 l/m 3.7 km/h (1 Bft) O 18.9 C 21.0 C
22.07.2004 01:00 19.8 C 97 % 1017.6 hPa 5.0 l/m 3.2 km/h (1 Bft) NO 19.4 C 19.8 C
22.07.2004 02:00 19.1 C 100 % 1017.8 hPa 2.8 l/m 5.4 km/h (1 Bft) NW 19.1 C 19.1 C
22.07.2004 03:00 18.1 C 100 % 1019.7 hPa 5.0 l/m 12.6 km/h (3 Bft) O-SO 18.1 C 18.1 C
22.07.2004 04:00 17.7 C 100 % 1019.5 hPa 0.0 l/m 7.5 km/h (2 Bft) O-SO 17.7 C 17.7 C
22.07.2004 05:00 17.6 C 100 % 1020.7 hPa 0.0 l/m 1.2 km/h (1 Bft) O-SO 17.6 C 17.6 C
22.07.2004 06:00 17.5 C 100 % 1020.8 hPa 0.0 l/m 0.0 km/h (0 Bft) N 17.5 C 17.5 C
22.07.2004 07:00 18.4 C 100 % 1021.3 hPa 0.0 l/m 0.0 km/h (0 Bft) N 18.4 C 18.4 C
22.07.2004 08:00 19.0 C 100 % 1020.7 hPa 0.0 l/m 0.0 km/h (0 Bft) N 19.0 C 19.0 C
22.07.2004 09:00 19.6 C 99 % 1020.5 hPa 0.0 l/m 0.1 km/h (0 Bft) O-NO 19.5 C 19.6 C
22.07.2004 10:00 21.6 C 87 % 1020.3 hPa 0.3 l/m 1.4 km/h (1 Bft) W-NW 19.4 C 21.6 C
22.07.2004 11:00 23.5 C 77 % 1020.0 hPa 0.0 l/m 1.4 km/h (1 Bft) NW 19.1 C 23.5 C
22.07.2004 12:00 25.5 C 64 % 1018.9 hPa 0.0 l/m 0.9 km/h (0 Bft) O-SO 18.1 C 25.5 C
22.07.2004 13:00 27.5 C 52 % 1018.3 hPa 0.0 l/m 2.1 km/h (1 Bft) SO 16.7 C 27.5 C
22.07.2004 14:00 29.4 C 45 % 1017.4 hPa 0.0 l/m 2.0 km/h (1 Bft) O 16.1 C 29.4 C
22.07.2004 15:00 31.1 C 38 % 1017.0 hPa 0.0 l/m 3.3 km/h (1 Bft) W-NW 15.1 C 31.1 C
22.07.2004 16:00 31.6 C 41 % 1016.3 hPa 0.0 l/m 0.7 km/h (0 Bft) NO 16.6 C 31.6 C
22.07.2004 17:00 31.6 C 39 % 1015.9 hPa 0.0 l/m 5.7 km/h (1 Bft) O-SO 15.9 C 31.6 C
22.07.2004 18:00 30.9 C 40 % 1016.0 hPa 0.0 l/m 4.9 km/h (1 Bft) O-SO 15.8 C 30.9 C
22.07.2004 19:00 29.7 C 46 % 1016.1 hPa 0.0 l/m 3.2 km/h (1 Bft) O-SO 16.7 C 29.7 C
22.07.2004 20:00 27.5 C 56 % 1016.4 hPa 0.0 l/m 2.3 km/h (1 Bft) O-SO 18.0 C 27.5 C
22.07.2004 21:00 24.4 C 71 % 1017.1 hPa 0.0 l/m 1.4 km/h (1 Bft) O-SO 18.7 C 24.4 C
22.07.2004 22:00 22.5 C 79 % 1018.1 hPa 0.0 l/m 0.0 km/h (0 Bft) N 18.7 C 22.5 C
22.07.2004 23:00 21.1 C 85 % 1018.3 hPa 0.0 l/m 0.0 km/h (0 Bft) N 18.5 C 21.1 C
23.07.2004 00:00 20.2 C 91 % 1018.4 hPa 0.0 l/m 0.0 km/h (0 Bft) N 18.6 C 20.2 C
23.07.2004 01:00 19.8 C 92 % 1018.4 hPa 0.0 l/m 0.1 km/h (0 Bft) O 18.5 C 19.8 C
23.07.2004 02:00 19.3 C 93 % 1018.5 hPa 0.0 l/m 2.7 km/h (1 Bft) O-SO 18.2 C 19.3 C
23.07.2004 03:00 19.1 C 92 % 1018.5 hPa 0.0 l/m 4.5 km/h (1 Bft) O-SO 17.8 C 19.1 C
23.07.2004 04:00 18.1 C 96 % 1018.6 hPa 0.0 l/m 3.3 km/h (1 Bft) O-SO 17.5 C 18.1 C
23.07.2004 05:00 18.3 C 97 % 1019.1 hPa 0.0 l/m 3.0 km/h (1 Bft) O-SO 17.9 C 18.3 C
23.07.2004 06:00 19.0 C 94 % 1019.5 hPa 0.0 l/m 6.9 km/h (2 Bft) O-SO 18.1 C 19.0 C
23.07.2004 07:00 19.4 C 96 % 1019.3 hPa 0.0 l/m 0.7 km/h (0 Bft) W-NW 18.8 C 19.4 C
23.07.2004 08:00 20.9 C 91 % 1019.4 hPa 0.0 l/m 0.2 km/h (0 Bft) O-NO 19.3 C 20.9 C
23.07.2004 09:00 22.6 C 78 % 1019.1 hPa 0.0 l/m 0.4 km/h (0 Bft) W 18.6 C 22.6 C
23.07.2004 10:00 24.5 C 69 % 1018.9 hPa 0.0 l/m 2.0 km/h (1 Bft) W-NW 18.4 C 24.5 C
23.07.2004 11:00 26.9 C 60 % 1018.6 hPa 0.0 l/m 1.6 km/h (1 Bft) W 18.3 C 26.9 C
23.07.2004 12:00 28.5 C 48 % 1018.8 hPa 0.0 l/m 14.8 km/h (3 Bft) W-NW 16.4 C 28.5 C
23.07.2004 13:00 29.6 C 43 % 1018.4 hPa 0.0 l/m 23.9 km/h (4 Bft) NW 15.6 C 29.6 C
23.07.2004 14:00 30.1 C 41 % 1018.2 hPa 0.0 l/m 21.1 km/h (4 Bft) NW 15.3 C 30.1 C
23.07.2004 15:00 30.2 C 43 % 1018.2 hPa 0.0 l/m 13.6 km/h (3 Bft) NW 16.3 C 30.2 C
23.07.2004 16:00 27.5 C 53 % 1018.5 hPa 0.0 l/m 5.7 km/h (1 Bft) SO 17.0 C 27.5 C
23.07.2004 17:00 27.0 C 56 % 1018.5 hPa 0.0 l/m 3.8 km/h (1 Bft) SO 17.4 C 27.0 C
23.07.2004 18:00 26.9 C 57 % 1018.6 hPa 0.0 l/m 3.9 km/h (1 Bft) O-SO 17.7 C 26.9 C
23.07.2004 19:00 26.4 C 61 % 1018.6 hPa 0.0 l/m 5.4 km/h (1 Bft) O-SO 18.3 C 26.4 C
23.07.2004 20:00 25.4 C 67 % 1018.7 hPa 0.0 l/m 4.3 km/h (1 Bft) O-SO 18.9 C 25.4 C
23.07.2004 21:00 24.0 C 74 % 1018.9 hPa 0.0 l/m 4.7 km/h (1 Bft) O-SO 19.2 C 24.0 C
23.07.2004 22:00 23.3 C 80 % 1019.0 hPa 0.0 l/m 1.3 km/h (1 Bft) O-SO 19.6 C 23.3 C
23.07.2004 23:00 22.7 C 83 % 1019.1 hPa 0.0 l/m 2.3 km/h (1 Bft) O-SO 19.7 C 22.7 C
24.07.2004 00:00 22.1 C 86 % 1019.5 hPa 0.0 l/m 0.7 km/h (0 Bft) O 19.5 C 22.1 C
24.07.2004 01:00 22.2 C 85 % 1019.3 hPa 0.0 l/m 1.3 km/h (1 Bft) O-SO 19.6 C 22.2 C
24.07.2004 02:00 20.7 C 86 % 1020.0 hPa 1.9 l/m 8.4 km/h (2 Bft) W-NW 18.3 C 20.7 C
24.07.2004 03:00 18.7 C 92 % 1020.6 hPa 0.0 l/m 0.9 km/h (0 Bft) NW 17.4 C 18.7 C
24.07.2004 04:00 18.4 C 95 % 1020.8 hPa 0.3 l/m 4.2 km/h (1 Bft) O-SO 17.6 C 18.4 C
24.07.2004 05:00 18.1 C 99 % 1021.3 hPa 0.3 l/m 0.4 km/h (0 Bft) O 17.9 C 18.1 C
24.07.2004 06:00 18.3 C 100 % 1021.7 hPa 0.0 l/m 0.0 km/h (0 Bft) N 18.3 C 18.3 C
24.07.2004 07:00 18.7 C 98 % 1021.7 hPa 0.0 l/m 0.1 km/h (0 Bft) SO 18.3 C 18.7 C
24.07.2004 08:00 19.1 C 95 % 1021.6 hPa 0.0 l/m 0.7 km/h (0 Bft) W-SW 18.2 C 19.1 C
24.07.2004 09:00 19.9 C 83 % 1021.5 hPa 0.0 l/m 2.3 km/h (1 Bft) W 17.0 C 19.9 C
24.07.2004 10:00 20.5 C 79 % 1021.9 hPa 0.0 l/m 7.8 km/h (2 Bft) W-NW 16.7 C 20.5 C
24.07.2004 11:00 21.3 C 74 % 1021.3 hPa 0.0 l/m 10.3 km/h (2 Bft) W-NW 16.6 C 21.3 C
24.07.2004 12:00 20.5 C 82 % 1021.4 hPa 1.9 l/m 7.9 km/h (2 Bft) W-NW 17.3 C 20.5 C
24.07.2004 13:00 19.7 C 95 % 1022.6 hPa 0.9 l/m 0.4 km/h (0 Bft) O 18.9 C 19.7 C
24.07.2004 14:00 20.3 C 97 % 1021.9 hPa 0.3 l/m 2.7 km/h (1 Bft) O-SO 19.8 C 20.3 C
24.07.2004 15:00 21.0 C 92 % 1021.4 hPa 0.0 l/m 1.6 km/h (1 Bft) O-SO 19.7 C 21.0 C
24.07.2004 16:00 20.4 C 93 % 1022.1 hPa 0.9 l/m 7.0 km/h (2 Bft) O-SO 19.2 C 20.4 C
24.07.2004 17:00 20.4 C 94 % 1021.8 hPa 0.0 l/m 6.2 km/h (2 Bft) O-SO 19.3 C 20.4 C
24.07.2004 18:00 20.5 C 91 % 1021.5 hPa 0.0 l/m 0.0 km/h (0 Bft) N 19.0 C 20.5 C
24.07.2004 19:00 20.9 C 88 % 1021.4 hPa 0.0 l/m 0.3 km/h (0 Bft) O-SO 18.9 C 20.9 C
24.07.2004 20:00 20.3 C 91 % 1021.7 hPa 0.0 l/m 0.2 km/h (0 Bft) O-SO 18.9 C 20.3 C
24.07.2004 21:00 19.5 C 92 % 1022.6 hPa 0.0 l/m 0.7 km/h (0 Bft) O-SO 18.2 C 19.5 C
24.07.2004 22:00 18.5 C 97 % 1022.7 hPa 0.0 l/m 1.3 km/h (1 Bft) O-SO 18.1 C 18.5 C
24.07.2004 23:00 18.4 C 99 % 1022.7 hPa 0.0 l/m 1.8 km/h (1 Bft) O-SO 18.3 C 18.4 C
25.07.2004 00:00 18.4 C 100 % 1021.8 hPa 0.0 l/m 1.7 km/h (1 Bft) O-SO 18.4 C 18.4 C
25.07.2004 01:00 18.2 C 100 % 1021.7 hPa 0.0 l/m 1.5 km/h (1 Bft) O-SO 18.2 C 18.2 C
25.07.2004 02:00 18.5 C 100 % 1021.7 hPa 0.0 l/m 0.7 km/h (0 Bft) NO 18.5 C 18.5 C
25.07.2004 03:00 17.9 C 100 % 1021.8 hPa 0.0 l/m 0.7 km/h (0 Bft) W-NW 17.9 C 17.9 C
25.07.2004 04:00 17.5 C 100 % 1021.8 hPa 0.0 l/m 0.3 km/h (0 Bft) W-NW 17.4 C 17.5 C
25.07.2004 05:00 16.3 C 99 % 1021.1 hPa 0.0 l/m 0.0 km/h (0 Bft) N 16.2 C 16.3 C
25.07.2004 06:00 16.2 C 100 % 1022.0 hPa 0.3 l/m 0.6 km/h (0 Bft) W-NW 16.1 C 16.2 C
25.07.2004 07:00 16.2 C 100 % 1021.8 hPa 0.0 l/m 0.7 km/h (0 Bft) W-NW 16.2 C 16.2 C
25.07.2004 08:00 17.1 C 94 % 1020.9 hPa 0.0 l/m 0.1 km/h (0 Bft) N 16.1 C 17.1 C
25.07.2004 09:00 18.0 C 82 % 1020.7 hPa 0.0 l/m 0.2 km/h (0 Bft) W 14.8 C 18.0 C
25.07.2004 10:00 19.4 C 72 % 1020.3 hPa 0.0 l/m 4.3 km/h (1 Bft) W-NW 14.2 C 19.4 C
25.07.2004 11:00 21.5 C 63 % 1019.2 hPa 0.0 l/m 3.1 km/h (1 Bft) W 14.1 C 21.5 C
25.07.2004 12:00 23.2 C 54 % 1018.8 hPa 0.0 l/m 2.8 km/h (1 Bft) O 13.3 C 23.2 C
25.07.2004 13:00 24.7 C 47 % 1017.6 hPa 0.0 l/m 5.0 km/h (1 Bft) W-NW 12.4 C 24.7 C
25.07.2004 14:00 25.9 C 38 % 1016.6 hPa 0.0 l/m 9.4 km/h (2 Bft) NW 10.5 C 25.9 C
25.07.2004 15:00 26.2 C 38 % 1016.6 hPa 0.0 l/m 10.4 km/h (2 Bft) W-NW 10.7 C 26.2 C
25.07.2004 16:00 26.2 C 37 % 1016.2 hPa 0.0 l/m 17.4 km/h (3 Bft) NW 10.3 C 26.2 C
25.07.2004 17:00 27.0 C 36 % 1015.4 hPa 0.0 l/m 14.0 km/h (3 Bft) W-NW 10.6 C 27.0 C
25.07.2004 18:00 26.2 C 41 % 1015.5 hPa 0.0 l/m 12.3 km/h (3 Bft) W-NW 11.7 C 26.2 C
25.07.2004 19:00 24.6 C 44 % 1015.7 hPa 0.0 l/m 14.6 km/h (3 Bft) NW 11.6 C 24.6 C
25.07.2004 20:00 22.6 C 50 % 1016.0 hPa 0.0 l/m 6.9 km/h (2 Bft) W-NW 11.7 C 22.6 C
25.07.2004 21:00 21.1 C 51 % 1016.2 hPa 0.0 l/m 17.5 km/h (3 Bft) NW 10.5 C 21.1 C
25.07.2004 22:00 19.6 C 51 % 1016.4 hPa 0.0 l/m 8.1 km/h (2 Bft) NW 9.2 C 19.6 C
25.07.2004 23:00 18.0 C 58 % 1016.8 hPa 0.0 l/m 0.5 km/h (0 Bft) N-NW 9.6 C 18.0 C
Min-Datum _ 19.07.04 25.07.04 20.07.04 - 19.07.04 - 25.07.04 19.07.04
_ Min-Zeit 05:12 17:18 19:51 - 00:09 - 17:18 05:12
Minimum _ 15.2 C 31 % 1013.6 hPa - 0.0 km/h (0 Bft) - 8.5 C 15.2 C
Max-Datum _ 22.07.04 19.07.04 24.07.04 21.07.04 22.07.04 - 24.07.04 22.07.04
_ Max-Zeit 16:47 03:15 22:17 02:23 02:56 - 14:56 16:47
Maximum _ 32.6 C 100 % 1022.8 hPa 14.8 l/m 38.3 km/h
NW (5 Bft)
- 20.4 C 32.6 C
Durchschnitt _ 21.9 C 76 % 1018.2 hPa #36.2 l/m 3.4 km/h (1 Bft) O-SO 16.7 C 21.9 C

Durchschnitt Minimum Temp.21.1 C
Durchschnitt Maximum Temp.22.7 C
© Kaiko 2004